Air Navigation Services of Czech Republic
Airport: LKMT Updated:  22.11.2017 10:57:07  UTC
 SPECI LKMT 22.11. 10:48 ...
SPECI LKMT 221048Z 24013KT 3000 -DZ BR BKN009 OVC015 08/06 Q1012 RMK REG QNH 1009=
 SPECI LKMT 22.11. 10:47 ...
SPECI LKMT 221047Z 24013KT 4000 BR BKN010 OVC016 08/06 Q1012 RMK REG QNH 1009=
 METAR LKMT 22.11. 10:30 ...
METAR LKMT 221030Z 22013KT 8000 BKN010 OVC016 08/06 Q1012 NOSIG RMK REG QNH 1009=
 TAF LKMT 22.11. 05:00 ...
TAF LKMT 220500Z 2206/2312 22008KT 9999 BKN040      TEMPO 2206/2208 6000 -RA BKN013      PROB30 TEMPO 2206/2207 3000 BR OVC009      TEMPO 2209/2213 23012G22KT      TEMPO 2209/2218 SCT030      BECMG 2218/2221 21006KT CAVOK=